Time;durP1;ratioP1;P1;durP2;ratioP2;P2;SDS_P1;SDS_P2;PMS_P1;PMS_P2;Temp;Humidity;BMP_temperature;BMP_pressure;BME280_temperature;BME280_humidity;BME280_pressure;Samples;Min_cycle;Max_cycle;Signal;HPM_P1;HPM_P2
2023/03/15 00:00:47;;;;;;;11.73;3.60;;;2.80;1.00;;;;;;5051472;28;20420;-56
2023/03/15 00:03:13;;;;;;;9.18;3.60;;;2.80;1.00;;;;;;5050681;28;20408;-57
2023/03/15 00:05:47;;;;;;;7.53;2.67;;;2.80;1.00;;;;;;5051338;28;20729;-54
2023/03/15 00:08:13;;;;;;;7.88;3.40;;;2.70;1.00;;;;;;5050219;28;20374;-55
2023/03/15 00:10:44;;;;;;;9.75;3.70;;;2.70;1.00;;;;;;5051344;28;20793;-54
2023/03/15 00:13:10;;;;;;;9.07;3.40;;;2.70;1.00;;;;;;5050517;28;20416;-54
2023/03/15 00:15:43;;;;;;;9.50;3.58;;;2.80;1.00;;;;;;5050666;28;20428;-54
2023/03/15 00:18:09;;;;;;;9.15;3.20;;;2.80;1.00;;;;;;5050425;28;20393;-54
2023/03/15 00:20:36;;;;;;;9.35;3.70;;;2.70;1.00;;;;;;5051407;28;20378;-54
2023/03/15 00:23:02;;;;;;;9.32;3.97;;;2.70;1.00;;;;;;5051152;28;20386;-58
2023/03/15 00:25:28;;;;;;;10.07;2.88;;;2.80;1.00;;;;;;5050315;28;20381;-54
2023/03/15 00:27:54;;;;;;;11.25;4.10;;;2.70;1.00;;;;;;5050758;28;20405;-56
2023/03/15 00:30:19;;;;;;;10.45;3.50;;;2.80;1.00;;;;;;5049758;28;20479;-54
2023/03/15 00:32:45;;;;;;;9.47;3.57;;;2.60;1.00;;;;;;5050805;28;20480;-55
2023/03/15 00:35:17;;;;;;;9.10;3.73;;;2.80;1.00;;;;;;5050285;28;20885;-54
2023/03/15 00:37:43;;;;;;;12.15;3.72;;;2.90;1.00;;;;;;5050732;28;20935;-54
2023/03/15 00:40:11;;;;;;;8.63;3.20;;;3.00;1.00;;;;;;5049977;28;20405;-54
2023/03/15 00:42:36;;;;;;;8.15;3.28;;;3.00;1.00;;;;;;5050646;28;20946;-53
2023/03/15 00:45:02;;;;;;;7.43;2.87;;;3.00;1.00;;;;;;5050560;28;20488;-57
2023/03/15 00:47:28;;;;;;;9.32;3.20;;;3.10;1.00;;;;;;5049848;28;20481;-54
2023/03/15 00:49:54;;;;;;;12.03;4.07;;;3.10;1.00;;;;;;5050702;28;20488;-54
2023/03/15 00:52:20;;;;;;;8.95;3.40;;;3.40;1.00;;;;;;5049884;28;20400;-53
2023/03/15 00:54:54;;;;;;;9.60;3.05;;;3.20;1.00;;;;;;5050360;28;20442;-53
2023/03/15 00:57:20;;;;;;;7.60;3.05;;;3.20;1.00;;;;;;5049830;28;20397;-54
2023/03/15 00:59:46;;;;;;;7.80;3.20;;;3.00;1.00;;;;;;5050641;28;20480;-53
2023/03/15 01:02:12;;;;;;;9.23;3.00;;;3.00;1.00;;;;;;5049533;28;20473;-54
2023/03/15 01:04:38;;;;;;;8.82;2.70;;;3.10;1.00;;;;;;5050454;28;20523;-54
2023/03/15 01:07:04;;;;;;;7.90;2.80;;;3.10;1.00;;;;;;5049804;28;20907;-58
2023/03/15 01:09:30;;;;;;;10.32;2.70;;;3.10;1.00;;;;;;5050251;28;20388;-53
2023/03/15 01:11:57;;;;;;;7.35;2.60;;;3.00;99.90;;;;;;5050133;28;20393;-53
2023/03/15 01:14:22;;;;;;;8.60;2.40;;;2.90;1.00;;;;;;5049619;28;20463;-54
2023/03/15 01:16:48;;;;;;;9.23;2.80;;;2.90;1.00;;;;;;5050162;28;20385;-54
2023/03/15 01:19:14;;;;;;;9.73;2.42;;;2.90;1.00;;;;;;5048952;28;20464;-53
2023/03/15 01:21:40;;;;;;;7.32;2.40;;;2.80;99.90;;;;;;5050292;28;20417;-53
2023/03/15 01:24:10;;;;;;;7.03;2.10;;;2.70;1.00;;;;;;5049443;28;20794;-57
2023/03/15 01:26:36;;;;;;;6.47;2.20;;;2.50;1.00;;;;;;5050069;28;20497;-53
2023/03/15 01:29:02;;;;;;;12.30;2.27;;;2.40;1.00;;;;;;5048623;28;20827;-54
2023/03/15 01:31:29;;;;;;;7.60;2.13;;;2.50;1.00;;;;;;5049233;28;20818;-54
2023/03/15 01:33:55;;;;;;;5.47;1.77;;;2.40;1.00;;;;;;5050032;28;20511;-54
2023/03/15 01:36:21;;;;;;;7.90;1.90;;;2.40;1.00;;;;;;5049174;28;20392;-53
2023/03/15 01:38:48;;;;;;;5.50;1.60;;;2.50;1.00;;;;;;5050042;28;20385;-53
2023/03/15 01:41:18;;;;;;;6.75;1.60;;;2.50;1.00;;;;;;5048891;28;20528;-54
2023/03/15 01:43:47;;;;;;;7.32;1.65;;;2.40;99.90;;;;;;5049823;28;20862;-53
2023/03/15 01:46:25;;;;;;;6.88;2.00;;;2.40;1.00;;;;;;5048961;28;20770;-53
2023/03/15 01:49:05;;;;;;;8.05;2.45;;;2.30;1.00;;;;;;5049757;28;20861;-56
2023/03/15 01:52:03;;;;;;;5.82;1.70;;;2.30;1.00;;;;;;5049335;28;20504;-56
2023/03/15 01:54:30;;;;;;;4.90;1.23;;;2.10;1.00;;;;;;5049536;28;20442;-56
2023/03/15 01:56:58;;;;;;;8.85;2.00;;;2.00;1.00;;;;;;5049573;28;20396;-56
2023/03/15 01:59:29;;;;;;;5.63;1.52;;;2.00;1.00;;;;;;5048866;28;20535;-56
2023/03/15 02:01:57;;;;;;;5.85;1.45;;;2.00;1.00;;;;;;5049932;28;20382;-55
2023/03/15 02:04:33;;;;;;;7.87;2.20;;;1.90;1.00;;;;;;5049222;28;20409;-56
2023/03/15 02:07:01;;;;;;;6.75;1.70;;;2.00;1.00;;;;;;5049505;28;20400;-57
2023/03/15 02:09:40;;;;;;;6.68;1.75;;;2.00;1.00;;;;;;5049241;28;20603;-57
2023/03/15 02:12:07;;;;;;;9.05;2.00;;;2.00;1.00;;;;;;5049167;28;20404;-56
2023/03/15 02:14:33;;;;;;;8.75;1.60;;;2.00;1.00;;;;;;5049462;28;20735;-56
2023/03/15 02:16:58;;;;;;;9.82;1.90;;;2.00;1.00;;;;;;5049225;28;20383;-56
2023/03/15 02:20:08;;;;;;;5.97;1.20;;;2.00;1.00;;;;;;5048944;28;20377;-56
2023/03/15 02:22:49;;;;;;;6.67;1.47;;;2.00;1.00;;;;;;5045057;28;20401;-56
2023/03/15 02:25:22;;;;;;;6.75;1.38;;;2.00;99.90;;;;;;5048724;28;20503;-56
2023/03/15 02:27:48;;;;;;;4.68;1.27;;;2.00;99.90;;;;;;5049158;28;20410;-56
2023/03/15 02:30:14;;;;;;;5.80;1.37;;;3.60;99.90;;;;;;5049213;28;20412;-56
2023/03/15 02:32:40;;;;;;;7.47;1.50;;;1.90;99.90;;;;;;5049434;28;20390;-56
2023/03/15 02:35:06;;;;;;;5.10;1.20;;;1.90;99.90;;;;;;5048705;28;20476;-57
2023/03/15 02:37:32;;;;;;;5.32;1.73;;;1.90;99.90;;;;;;5049355;28;20385;-55
2023/03/15 02:39:58;;;;;;;7.53;1.40;;;1.90;99.90;;;;;;5051604;28;20446;-56
2023/03/15 02:42:25;;;;;;;5.90;1.30;;;1.90;99.90;;;;;;5052709;28;21050;-56
2023/03/15 02:44:51;;;;;;;6.77;1.80;;;1.90;99.90;;;;;;5053349;28;20431;-56
2023/03/15 02:47:23;;;;;;;6.47;0.82;;;1.80;1.00;;;;;;5052189;28;20521;-57
2023/03/15 02:49:51;;;;;;;6.50;1.40;;;1.80;99.90;;;;;;5053023;28;20456;-56
2023/03/15 02:52:16;;;;;;;6.30;1.60;;;1.70;1.00;;;;;;5052728;28;20382;-56
2023/03/15 02:54:42;;;;;;;5.70;1.10;;;1.70;1.00;;;;;;5052931;28;20919;-56
2023/03/15 02:57:12;;;;;;;6.47;1.30;;;1.60;1.00;;;;;;5051820;28;20397;-59
2023/03/15 02:59:38;;;;;;;5.20;1.40;;;1.60;1.00;;;;;;5052629;28;20780;-56
2023/03/15 03:02:05;;;;;;;7.53;1.40;;;1.60;1.00;;;;;;5052730;28;20485;-60
2023/03/15 03:04:30;;;;;;;6.57;1.60;;;1.60;1.00;;;;;;5052475;28;20381;-56
2023/03/15 03:06:56;;;;;;;12.45;1.10;;;1.60;1.00;;;;;;5052751;28;20893;-56
2023/03/15 03:09:23;;;;;;;5.90;1.10;;;1.60;1.00;;;;;;5051316;28;20373;-56
2023/03/15 03:11:49;;;;;;;5.60;1.50;;;1.60;1.00;;;;;;5052352;28;20483;-56
2023/03/15 03:14:14;;;;;;;10.33;1.67;;;1.60;1.00;;;;;;5050596;28;20488;-56
2023/03/15 03:16:41;;;;;;;7.00;1.23;;;1.70;99.90;;;;;;5052416;28;20403;-56
2023/03/15 03:19:07;;;;;;;7.40;1.70;;;1.70;99.90;;;;;;5052054;28;20413;-56
2023/03/15 03:21:33;;;;;;;5.97;1.20;;;1.70;99.90;;;;;;5052488;28;20460;-56
2023/03/15 03:23:58;;;;;;;5.70;1.35;;;1.70;99.90;;;;;;5052052;28;20532;-53
2023/03/15 03:26:26;;;;;;;5.00;1.40;;;1.80;99.90;;;;;;5051604;28;21055;-53
2023/03/15 03:28:53;;;;;;;4.43;1.17;;;1.70;99.90;;;;;;5052215;28;20413;-53
2023/03/15 03:31:22;;;;;;;4.32;1.10;;;1.70;99.90;;;;;;5054155;28;20916;-53
2023/03/15 03:33:48;;;;;;;5.80;1.60;;;1.90;99.90;;;;;;5060884;28;20489;-53
2023/03/15 03:36:14;;;;;;;6.13;1.27;;;1.70;99.90;;;;;;5061850;28;20427;-53
2023/03/15 03:38:42;;;;;;;6.30;1.10;;;1.70;99.90;;;;;;5062096;28;20390;-55
2023/03/15 03:41:09;;;;;;;7.80;1.55;;;1.70;99.90;;;;;;5059905;28;20920;-54
2023/03/15 03:43:36;;;;;;;5.00;1.13;;;1.60;99.90;;;;;;5062292;28;20437;-55
2023/03/15 03:46:02;;;;;;;6.40;1.20;;;1.60;99.90;;;;;;5062306;28;20382;-54
2023/03/15 03:48:27;;;;;;;5.28;1.05;;;3.00;99.90;;;;;;5060016;28;20390;-54
2023/03/15 03:50:53;;;;;;;5.70;1.00;;;1.60;99.90;;;;;;5061262;28;20411;-56
2023/03/15 03:53:19;;;;;;;5.47;1.10;;;1.60;99.90;;;;;;5060769;28;20749;-56
2023/03/15 03:55:45;;;;;;;5.65;1.40;;;1.60;99.90;;;;;;5060283;28;20412;-56
2023/03/15 03:58:11;;;;;;;5.40;1.30;;;1.60;99.90;;;;;;5057028;28;20418;-56
2023/03/15 04:00:37;;;;;;;8.30;1.40;;;1.60;99.90;;;;;;5060930;28;20376;-56
2023/03/15 04:03:03;;;;;;;8.03;2.00;;;1.50;99.90;;;;;;5062127;28;20525;-56
2023/03/15 04:05:28;;;;;;;6.87;1.27;;;1.40;99.90;;;;;;5059304;28;20523;-56
2023/03/15 04:07:54;;;;;;;5.82;1.30;;;1.40;99.90;;;;;;5061702;28;20398;-56
2023/03/15 04:10:25;;;;;;;4.85;1.10;;;1.40;99.90;;;;;;5060635;28;20401;-56
2023/03/15 04:12:53;;;;;;;8.40;1.33;;;1.40;99.90;;;;;;5057840;28;20842;-57
2023/03/15 04:15:21;;;;;;;8.43;2.10;;;1.40;99.90;;;;;;5060121;28;20380;-56
2023/03/15 04:17:47;;;;;;;6.75;1.35;;;1.40;99.90;;;;;;5062751;28;20763;-56
2023/03/15 04:20:14;;;;;;;7.00;1.40;;;1.40;99.90;;;;;;5060847;28;20368;-56
2023/03/15 04:22:39;;;;;;;7.95;1.38;;;1.40;99.90;;;;;;5061642;28;20544;-56
2023/03/15 04:25:06;;;;;;;5.82;1.73;;;1.40;99.90;;;;;;5059371;28;20508;-57
2023/03/15 04:27:31;;;;;;;5.78;1.85;;;1.40;99.90;;;;;;5060564;28;20864;-56
2023/03/15 04:29:57;;;;;;;5.40;1.75;;;1.50;99.90;;;;;;5061066;28;20416;-56
2023/03/15 04:32:23;;;;;;;8.27;2.10;;;1.40;99.90;;;;;;5059042;28;20445;-56
2023/03/15 04:34:50;;;;;;;9.50;2.00;;;1.40;99.90;;;;;;5061216;28;20919;-57
2023/03/15 04:37:17;;;;;;;8.05;2.47;;;1.30;99.90;;;;;;5059457;28;20440;-56
2023/03/15 04:39:43;;;;;;;11.20;2.50;;;1.30;99.90;;;;;;5058931;28;20985;-55
2023/03/15 04:42:09;;;;;;;9.90;2.30;;;2.00;99.90;;;;;;5061144;28;20450;-59
2023/03/15 04:44:35;;;;;;;8.43;2.30;;;1.30;99.90;;;;;;5060056;28;20386;-55
2023/03/15 04:47:01;;;;;;;6.20;2.20;;;1.30;99.90;;;;;;5059848;28;20872;-56
2023/03/15 04:49:26;;;;;;;11.17;2.90;;;1.30;99.90;;;;;;5042445;28;20395;-57
2023/03/15 04:51:52;;;;;;;8.43;3.00;;;1.30;99.90;;;;;;5059773;28;20409;-57
2023/03/15 04:54:17;;;;;;;7.03;2.67;;;1.20;99.90;;;;;;5059218;28;20384;-56
2023/03/15 04:56:43;;;;;;;8.23;2.47;;;2.80;99.90;;;;;;5060887;28;20855;-56
2023/03/15 04:59:09;;;;;;;9.25;2.45;;;1.10;99.90;;;;;;5058644;28;20473;-56
2023/03/15 05:01:36;;;;;;;7.47;2.30;;;1.10;99.90;;;;;;5060701;28;20872;-56
2023/03/15 05:04:02;;;;;;;9.40;2.85;;;1.10;99.90;;;;;;5060393;28;20464;-56
2023/03/15 05:06:28;;;;;;;10.60;2.65;;;1.10;99.90;;;;;;5058214;28;20462;-56
2023/03/15 05:08:54;;;;;;;10.57;3.00;;;1.20;99.90;;;;;;5060323;28;20386;-56
2023/03/15 05:11:20;;;;;;;8.40;3.10;;;1.20;99.90;;;;;;5059307;28;20492;-56
2023/03/15 05:13:46;;;;;;;12.05;3.38;;;1.20;99.90;;;;;;5058545;28;20427;-57
2023/03/15 05:16:12;;;;;;;7.33;3.20;;;1.20;99.90;;;;;;5059757;28;20380;-56
2023/03/15 05:18:37;;;;;;;8.17;2.90;;;1.20;99.90;;;;;;5059809;28;20460;-56
2023/03/15 05:21:04;;;;;;;7.30;2.60;;;1.20;99.90;;;;;;5059329;28;20387;-56
2023/03/15 05:23:32;;;;;;;7.82;2.80;;;1.20;99.90;;;;;;5059906;28;20433;-57
2023/03/15 05:25:59;;;;;;;9.75;2.95;;;1.20;99.90;;;;;;5059867;28;20392;-56
2023/03/15 05:28:25;;;;;;;11.05;3.10;;;1.20;90.30;;;;;;5058100;28;20477;-56
2023/03/15 05:30:51;;;;;;;8.18;2.90;;;1.30;90.90;;;;;;5060337;28;20423;-57
2023/03/15 05:33:20;;;;;;;8.20;2.80;;;1.30;95.20;;;;;;5058124;28;20445;-58
2023/03/15 05:35:47;;;;;;;7.87;2.77;;;1.30;1.00;;;;;;5058615;28;20470;-56
2023/03/15 05:38:13;;;;;;;8.18;2.90;;;1.30;1.00;;;;;;5059624;28;20530;-56
2023/03/15 05:40:46;;;;;;;10.40;3.30;;;1.30;20.60;;;;;;5059532;28;20804;-57
2023/03/15 05:43:11;;;;;;;11.13;2.63;;;1.30;1.00;;;;;;5055077;28;20389;-59
2023/03/15 05:45:38;;;;;;;10.73;3.03;;;1.40;5.50;;;;;;5059546;28;20441;-56
2023/03/15 05:48:04;;;;;;;8.85;3.28;;;1.40;1.00;;;;;;5059754;28;20394;-57
2023/03/15 05:50:30;;;;;;;12.60;3.38;;;1.40;1.00;;;;;;5057292;28;20980;-56
2023/03/15 05:52:56;;;;;;;10.10;3.20;;;1.50;1.00;;;;;;5059756;28;20388;-56
2023/03/15 05:55:22;;;;;;;7.72;3.13;;;1.60;1.00;;;;;;5059025;28;20377;-54
2023/03/15 05:57:48;;;;;;;7.70;3.40;;;1.60;1.00;;;;;;5058158;28;20374;-57
2023/03/15 06:00:15;;;;;;;10.90;2.63;;;1.60;1.00;;;;;;5056681;28;20751;-56
2023/03/15 06:02:42;;;;;;;6.93;2.30;;;1.80;1.00;;;;;;5058266;28;20396;-55
2023/03/15 06:05:08;;;;;;;10.45;2.70;;;2.20;1.00;;;;;;5059847;28;20384;-58
2023/03/15 06:07:33;;;;;;;10.82;2.60;;;2.70;1.00;;;;;;5057031;28;20379;-57
2023/03/15 06:09:59;;;;;;;8.25;2.88;;;3.20;1.00;;;;;;5052197;28;20420;-54
2023/03/15 06:12:24;;;;;;;7.07;2.27;;;3.80;1.00;;;;;;5058765;28;20392;-54
2023/03/15 06:14:50;;;;;;;7.93;2.22;;;6.00;99.90;;;;;;5060484;28;20387;-58
2023/03/15 06:17:15;;;;;;;7.33;2.40;;;4.90;1.00;;;;;;5061921;28;20889;-57
2023/03/15 06:19:41;;;;;;;8.60;2.08;;;5.30;99.90;;;;;;5062202;28;20527;-57
2023/03/15 06:22:07;;;;;;;6.47;2.10;;;5.70;1.00;;;;;;5064053;28;21262;-57
2023/03/15 06:24:33;;;;;;;11.15;2.00;;;5.90;1.00;;;;;;5061717;28;20404;-57
2023/03/15 06:26:58;;;;;;;8.50;2.03;;;6.30;1.00;;;;;;5061906;28;20380;-55
2023/03/15 06:29:24;;;;;;;8.68;2.30;;;8.60;1.00;;;;;;5057934;28;20516;-55
2023/03/15 06:31:50;;;;;;;9.40;2.10;;;7.70;1.00;;;;;;5050428;28;20906;-55
2023/03/15 06:34:16;;;;;;;9.40;2.20;;;8.10;1.00;;;;;;5060743;28;20391;-58
2023/03/15 06:36:41;;;;;;;13.73;2.47;;;8.90;1.00;;;;;;5065947;28;20385;-58
2023/03/15 06:39:11;;;;;;;12.50;2.13;;;9.80;99.90;;;;;;5054261;28;20405;-57
2023/03/15 06:41:38;;;;;;;7.10;1.90;;;10.20;99.90;;;;;;5046493;28;20406;-57
2023/03/15 06:44:04;;;;;;;8.60;2.38;;;10.10;99.90;;;;;;5047358;28;20758;-57
2023/03/15 06:46:30;;;;;;;8.83;1.77;;;9.80;99.90;;;;;;5049385;28;20405;-57
2023/03/15 06:48:56;;;;;;;8.30;1.80;;;9.60;99.90;;;;;;5053224;28;20393;-56
2023/03/15 06:51:21;;;;;;;7.67;2.00;;;9.70;99.90;;;;;;5049780;28;20415;-56
2023/03/15 06:53:47;;;;;;;10.93;1.90;;;10.20;99.90;;;;;;5048450;28;20405;-58
2023/03/15 06:56:13;;;;;;;8.00;2.40;;;10.50;99.90;;;;;;5046796;28;20905;-57
2023/03/15 06:58:38;;;;;;;6.50;2.50;;;10.60;99.90;;;;;;5034864;28;20437;-57
2023/03/15 07:01:04;;;;;;;6.60;1.90;;;11.20;99.90;;;;;;5051004;28;20495;-57
2023/03/15 07:03:30;;;;;;;8.50;2.20;;;11.50;99.90;;;;;;5041349;28;20970;-60
2023/03/15 07:05:55;;;;;;;7.70;2.50;;;11.50;99.90;;;;;;5035447;28;20412;-56
2023/03/15 07:08:22;;;;;;;8.63;3.00;;;11.70;99.90;;;;;;5043213;28;20408;-53
2023/03/15 07:10:49;;;;;;;9.07;2.50;;;11.70;99.90;;;;;;5045505;28;20820;-56
2023/03/15 07:13:15;;;;;;;9.50;2.70;;;11.50;99.90;;;;;;5037955;28;20463;-56
2023/03/15 07:15:41;;;;;;;6.80;2.50;;;11.30;99.90;;;;;;5045763;28;20407;-57
2023/03/15 07:18:07;;;;;;;7.87;2.37;;;10.50;99.90;;;;;;5043256;28;20860;-57
2023/03/15 07:20:33;;;;;;;11.00;3.00;;;10.00;99.90;;;;;;5032822;28;20405;-53
2023/03/15 07:22:59;;;;;;;5.97;2.10;;;10.00;99.90;;;;;;5036396;28;20867;-53
2023/03/15 07:25:24;;;;;;;7.93;2.20;;;9.90;99.90;;;;;;5038571;28;20480;-53
2023/03/15 07:27:51;;;;;;;6.60;2.00;;;10.20;99.90;;;;;;5031232;28;20426;-57
2023/03/15 07:30:17;;;;;;;9.32;2.50;;;10.70;99.90;;;;;;5030884;28;20415;-59
2023/03/15 07:32:43;;;;;;;8.23;2.37;;;10.80;99.90;;;;;;5033149;28;20463;-58
2023/03/15 07:35:09;;;;;;;7.13;1.88;;;11.00;99.90;;;;;;5032826;28;20391;-58
2023/03/15 07:37:34;;;;;;;9.98;2.78;;;11.50;99.90;;;;;;5033342;28;20394;-59
2023/03/15 07:40:08;;;;;;;7.63;1.88;;;11.10;99.90;;;;;;5032822;28;20434;-59
2023/03/15 07:42:40;;;;;;;6.28;2.20;;;10.00;99.90;;;;;;5031286;28;20445;-54
2023/03/15 07:45:07;;;;;;;7.20;1.90;;;10.10;99.90;;;;;;5040065;28;20403;-54
2023/03/15 07:47:33;;;;;;;5.35;1.50;;;10.90;99.90;;;;;;5032603;28;20406;-55
2023/03/15 07:49:59;;;;;;;7.93;1.75;;;10.40;99.90;;;;;;5032007;28;20395;-55
2023/03/15 07:52:24;;;;;;;13.45;2.80;;;10.90;99.90;;;;;;5031581;28;20962;-55
2023/03/15 07:54:50;;;;;;;8.30;1.73;;;11.00;99.90;;;;;;5031523;28;20387;-55
2023/03/15 07:57:16;;;;;;;9.73;2.30;;;10.70;99.90;;;;;;5031431;28;20772;-55
2023/03/15 07:59:41;;;;;;;6.40;1.90;;;10.40;99.90;;;;;;5034278;28;20384;-55
2023/03/15 08:02:13;;;;;;;9.88;2.55;;;10.20;99.90;;;;;;5039114;28;20411;-56
2023/03/15 08:04:39;;;;;;;6.22;1.83;;;11.60;99.90;;;;;;5037660;28;20795;-54
2023/03/15 08:07:05;;;;;;;7.93;1.80;;;11.50;99.90;;;;;;5042435;28;20421;-54
2023/03/15 08:09:33;;;;;;;5.10;1.60;;;11.00;99.90;;;;;;5038318;28;20407;-54
2023/03/15 08:12:00;;;;;;;8.73;1.98;;;10.70;99.90;;;;;;5039021;28;20401;-54
2023/03/15 08:14:26;;;;;;;7.55;1.70;;;11.30;99.90;;;;;;5037234;28;20859;-55
2023/03/15 08:16:52;;;;;;;8.70;2.10;;;10.80;99.90;;;;;;5045765;28;20401;-55
2023/03/15 08:19:17;;;;;;;7.20;1.90;;;10.80;99.90;;;;;;5033703;28;20399;-54
2023/03/15 08:21:44;;;;;;;7.03;2.03;;;11.80;99.90;;;;;;5044258;28;20378;-54
2023/03/15 08:24:10;;;;;;;9.77;2.58;;;11.70;99.90;;;;;;5045149;28;20399;-55
2023/03/15 08:26:36;;;;;;;4.82;1.40;;;11.60;99.90;;;;;;5041894;28;20379;-54
2023/03/15 08:29:02;;;;;;;10.20;2.55;;;10.80;99.90;;;;;;5036559;28;20422;-54
2023/03/15 08:31:28;;;;;;;6.10;1.60;;;10.10;99.90;;;;;;5037527;28;20580;-56
2023/03/15 08:33:53;;;;;;;8.65;2.08;;;10.10;99.90;;;;;;5037273;28;20803;-54
2023/03/15 08:36:19;;;;;;;6.40;1.50;;;10.60;99.90;;;;;;5034951;28;20394;-55
2023/03/15 08:38:45;;;;;;;10.05;1.90;;;10.30;99.90;;;;;;5032267;28;20478;-54
2023/03/15 08:41:10;;;;;;;9.63;1.70;;;9.90;99.90;;;;;;5036914;28;20486;-59
2023/03/15 08:43:36;;;;;;;7.50;1.70;;;8.80;99.90;;;;;;5037297;28;20399;-55
2023/03/15 08:46:02;;;;;;;6.90;1.50;;;8.60;99.90;;;;;;5037174;28;20409;-54
2023/03/15 08:48:28;;;;;;;8.30;1.73;;;9.20;99.90;;;;;;5037637;28;20396;-54
2023/03/15 08:50:53;;;;;;;9.70;2.80;;;9.80;99.90;;;;;;5039927;28;20820;-55
2023/03/15 08:53:19;;;;;;;5.47;1.40;;;9.50;99.90;;;;;;5045353;28;20417;-55
2023/03/15 08:55:47;;;;;;;6.30;1.20;;;9.40;99.90;;;;;;5032573;28;20486;-55
2023/03/15 08:58:13;;;;;;;9.13;1.77;;;9.00;99.90;;;;;;5029972;28;20414;-58
2023/03/15 09:00:39;;;;;;;5.82;1.10;;;9.70;99.90;;;;;;5036984;28;20440;-54
2023/03/15 09:03:04;;;;;;;5.80;1.13;;;9.40;99.90;;;;;;5030123;28;20445;-54
2023/03/15 09:05:30;;;;;;;6.87;1.10;;;9.70;99.90;;;;;;5035874;28;20945;-55
2023/03/15 09:07:55;;;;;;;10.23;1.57;;;9.40;99.90;;;;;;5035388;28;20398;-54
2023/03/15 09:10:21;;;;;;;8.60;1.30;;;8.90;99.90;;;;;;5034406;28;20421;-54
2023/03/15 09:12:51;;;;;;;5.47;1.10;;;8.90;99.90;;;;;;5032835;28;20395;-54
2023/03/15 09:15:16;;;;;;;6.77;1.00;;;8.40;99.90;;;;;;5036668;28;20395;-54
2023/03/15 09:17:42;;;;;;;6.90;1.05;;;8.30;99.90;;;;;;5036957;28;20421;-54
2023/03/15 09:20:13;;;;;;;8.30;1.20;;;9.40;99.90;;;;;;5039631;28;20393;-54
2023/03/15 09:22:40;;;;;;;6.35;0.98;;;9.10;99.90;;;;;;5049652;28;20377;-54
2023/03/15 09:25:08;;;;;;;8.75;1.30;;;9.10;99.90;;;;;;5039494;28;20398;-54
2023/03/15 09:27:34;;;;;;;7.10;1.80;;;8.90;99.90;;;;;;5045640;28;20414;-54
2023/03/15 09:29:59;;;;;;;6.20;1.00;;;8.20;99.90;;;;;;5035247;28;20886;-57
2023/03/15 09:32:25;;;;;;;7.70;1.50;;;8.00;99.90;;;;;;5042317;28;20760;-56
2023/03/15 09:34:52;;;;;;;7.80;1.30;;;8.20;99.90;;;;;;5031858;28;20401;-54
2023/03/15 09:37:19;;;;;;;7.60;0.90;;;8.10;99.90;;;;;;5035036;28;20510;-56
2023/03/15 09:39:45;;;;;;;4.87;0.90;;;7.50;99.90;;;;;;5036275;28;20390;-56
2023/03/15 09:42:25;;;;;;;6.00;1.10;;;7.50;99.90;;;;;;5036252;28;20972;-57
2023/03/15 09:45:21;;;;;;;6.43;1.40;;;7.70;99.90;;;;;;5029757;28;20427;-57
2023/03/15 09:48:07;;;;;;;8.13;0.93;;;8.80;99.90;;;;;;5036088;28;20401;-57
2023/03/15 09:50:47;;;;;;;7.20;1.20;;;9.00;99.90;;;;;;5038692;28;20606;-56
2023/03/15 09:53:23;;;;;;;7.78;1.08;;;7.80;99.90;;;;;;5034322;28;20876;-58
2023/03/15 09:55:50;;;;;;;8.30;1.00;;;7.90;99.90;;;;;;5034959;28;20399;-54
2023/03/15 09:58:31;;;;;;;5.30;0.90;;;8.50;99.90;;;;;;5035256;28;20406;-58
2023/03/15 10:01:01;;;;;;;8.77;1.30;;;7.90;99.90;;;;;;5029570;28;20398;-54
2023/03/15 10:03:49;;;;;;;7.40;0.90;;;8.40;99.90;;;;;;5035497;28;20402;-54
2023/03/15 10:06:27;;;;;;;5.20;0.95;;;9.50;99.90;;;;;;5044495;28;20891;-55
2023/03/15 10:08:58;;;;;;;5.22;0.90;;;10.20;99.90;;;;;;5035963;28;20430;-55
2023/03/15 10:11:33;;;;;;;8.97;1.40;;;10.70;99.90;;;;;;5038761;28;20410;-54
2023/03/15 10:14:38;;;;;;;6.53;1.20;;;10.30;99.90;;;;;;5035151;28;20418;-54
2023/03/15 10:17:12;;;;;;;5.40;1.10;;;10.10;99.90;;;;;;5036559;28;20930;-54
2023/03/15 10:19:49;;;;;;;8.20;1.10;;;9.30;99.90;;;;;;5042371;28;20377;-54
2023/03/15 10:22:28;;;;;;;7.03;1.00;;;9.40;99.90;;;;;;5042051;28;20406;-58
2023/03/15 10:25:15;;;;;;;9.32;1.30;;;8.90;99.90;;;;;;5042269;28;20400;-54
2023/03/15 10:27:48;;;;;;;7.72;1.25;;;9.10;99.90;;;;;;5048820;28;20874;-54
2023/03/15 10:30:15;;;;;;;5.28;1.10;;;9.90;99.90;;;;;;5048289;28;20478;-54
2023/03/15 10:32:43;;;;;;;9.90;1.30;;;10.20;99.90;;;;;;5034099;28;20426;-55
2023/03/15 10:35:17;;;;;;;7.32;1.05;;;10.70;99.90;;;;;;5043689;28;20895;-54
2023/03/15 10:37:43;;;;;;;7.10;1.30;;;12.10;99.90;;;;;;5036306;28;20411;-55
2023/03/15 10:40:14;;;;;;;7.78;1.10;;;11.80;99.90;;;;;;5030512;28;20424;-54
2023/03/15 10:42:43;;;;;;;6.00;1.10;;;10.90;99.90;;;;;;5046731;28;20920;-54
2023/03/15 10:45:27;;;;;;;5.35;1.02;;;11.60;99.90;;;;;;5038484;28;20396;-56
2023/03/15 10:47:53;;;;;;;5.80;1.00;;;11.90;99.90;;;;;;5028981;28;20884;-55
2023/03/15 10:50:31;;;;;;;5.47;1.00;;;11.60;99.90;;;;;;5030583;28;20403;-54
2023/03/15 10:52:58;;;;;;;8.10;0.90;;;11.40;99.90;;;;;;5048642;28;20431;-54
2023/03/15 10:55:32;;;;;;;7.90;1.00;;;11.30;99.90;;;;;;5033816;28;20425;-54
2023/03/15 10:58:11;;;;;;;4.82;0.90;;;10.60;99.90;;;;;;5034014;28;20439;-54
2023/03/15 11:00:37;;;;;;;5.80;0.90;;;10.00;99.90;;;;;;5040238;28;20441;-54
2023/03/15 11:03:06;;;;;;;5.10;0.85;;;9.30;99.90;;;;;;5022155;28;20960;-53
2023/03/15 11:05:44;;;;;;;6.70;1.00;;;9.00;99.90;;;;;;5038270;28;21251;-56
2023/03/15 11:08:19;;;;;;;4.95;0.60;;;8.50;99.90;;;;;;5034294;28;20431;-55
2023/03/15 11:10:46;;;;;;;5.55;0.80;;;8.10;99.90;;;;;;5052302;28;20412;-58
2023/03/15 11:13:30;;;;;;;5.20;0.85;;;8.20;99.90;;;;;;5037516;28;20431;-56
2023/03/15 11:16:14;;;;;;;4.85;0.70;;;8.30;99.90;;;;;;5037671;28;20407;-56
2023/03/15 11:18:52;;;;;;;6.32;0.60;;;8.40;99.90;;;;;;5037429;28;20432;-56
2023/03/15 11:21:19;;;;;;;6.32;0.93;;;8.30;99.90;;;;;;5033994;28;20845;-54
2023/03/15 11:23:47;;;;;;;5.00;1.10;;;8.40;99.90;;;;;;5038781;28;20457;-54
2023/03/15 11:26:22;;;;;;;5.70;1.00;;;8.40;99.90;;;;;;5032068;28;20485;-60
2023/03/15 11:28:52;;;;;;;6.68;0.90;;;8.20;99.90;;;;;;5031736;28;20422;-56
2023/03/15 11:31:25;;;;;;;6.40;0.90;;;8.10;99.90;;;;;;5038337;28;20413;-57
2023/03/15 11:34:13;;;;;;;4.30;0.70;;;8.00;99.90;;;;;;5051460;28;20386;-56
2023/03/15 11:36:43;;;;;;;5.80;0.80;;;8.00;99.90;;;;;;5037137;28;20400;-56
2023/03/15 11:39:15;;;;;;;5.97;1.08;;;8.80;99.90;;;;;;5031844;28;20881;-56
2023/03/15 11:41:51;;;;;;;6.55;0.90;;;7.70;99.90;;;;;;5038242;28;20411;-56
2023/03/15 11:44:34;;;;;;;4.63;0.70;;;7.60;99.90;;;;;;5050657;28;20443;-60
2023/03/15 11:47:09;;;;;;;6.60;0.90;;;7.60;99.90;;;;;;5038146;28;20407;-56
2023/03/15 11:49:53;;;;;;;6.57;1.40;;;7.70;99.90;;;;;;5037615;28;20369;-56
2023/03/15 11:52:22;;;;;;;4.65;0.60;;;7.60;99.90;;;;;;5050904;28;20428;-56
2023/03/15 11:54:49;;;;;;;5.03;0.80;;;7.40;99.90;;;;;;5038993;28;20395;-56
2023/03/15 11:57:35;;;;;;;5.70;0.90;;;7.10;99.90;;;;;;5038143;28;20393;-60
2023/03/15 12:00:25;;;;;;;4.47;0.70;;;7.00;99.90;;;;;;5032143;28;20520;-55
2023/03/15 12:02:55;;;;;;;4.50;0.80;;;7.00;99.90;;;;;;5040697;28;20914;-57
2023/03/15 12:05:44;;;;;;;5.95;1.10;;;7.00;99.90;;;;;;5031565;28;20893;-56
2023/03/15 12:08:26;;;;;;;5.20;0.90;;;7.10;99.90;;;;;;5035871;28;20402;-56
2023/03/15 12:10:52;;;;;;;4.55;0.80;;;7.10;99.90;;;;;;5032349;28;20442;-56
2023/03/15 12:13:49;;;;;;;4.90;0.70;;;7.10;99.90;;;;;;5035758;28;20498;-56
2023/03/15 12:16:19;;;;;;;6.05;1.20;;;7.30;99.90;;;;;;5035331;28;20428;-60
2023/03/15 12:18:45;;;;;;;6.25;1.35;;;7.40;99.90;;;;;;5050881;28;20385;-56
2023/03/15 12:21:21;;;;;;;4.88;0.80;;;7.80;99.90;;;;;;5047686;28;20457;-56
2023/03/15 12:23:56;;;;;;;5.20;1.07;;;7.70;99.90;;;;;;5038048;28;21034;-56
2023/03/15 12:26:25;;;;;;;5.18;1.10;;;7.50;99.90;;;;;;5036585;28;20863;-56
2023/03/15 12:29:00;;;;;;;5.83;1.70;;;7.60;99.90;;;;;;5039556;28;20427;-56
2023/03/15 12:31:41;;;;;;;6.70;1.20;;;7.70;99.90;;;;;;5048652;28;20423;-56
2023/03/15 12:34:22;;;;;;;6.20;1.30;;;8.50;99.90;;;;;;5037524;28;20393;-55
2023/03/15 12:36:51;;;;;;;12.20;2.40;;;7.20;99.90;;;;;;5040332;28;20412;-56
2023/03/15 12:39:17;;;;;;;6.75;1.50;;;7.20;99.90;;;;;;5040615;28;20441;-60
2023/03/15 12:41:48;;;;;;;7.33;2.30;;;7.20;99.90;;;;;;5039730;28;20781;-56
2023/03/15 12:44:30;;;;;;;7.18;1.70;;;7.30;99.90;;;;;;5030567;28;20482;-60
2023/03/15 12:47:01;;;;;;;8.93;1.40;;;7.40;99.90;;;;;;5040307;28;20422;-56
2023/03/15 12:49:33;;;;;;;7.60;1.75;;;7.20;99.90;;;;;;5030373;28;20402;-56
2023/03/15 12:52:00;;;;;;;6.45;1.63;;;7.30;99.90;;;;;;5037390;28;20422;-56
2023/03/15 12:54:45;;;;;;;6.88;1.77;;;7.10;99.90;;;;;;5027853;28;20502;-57
2023/03/15 12:57:13;;;;;;;7.10;1.00;;;6.70;99.90;;;;;;5044696;28;20398;-54
2023/03/15 13:00:13;;;;;;;5.50;1.27;;;6.30;1.00;;;;;;5049350;28;20413;-54
2023/03/15 13:02:48;;;;;;;5.05;1.17;;;6.00;1.00;;;;;;5041144;28;20430;-54
2023/03/15 13:05:47;;;;;;;6.70;1.38;;;6.80;99.90;;;;;;5049017;28;20399;-57
2023/03/15 13:08:28;;;;;;;5.57;1.38;;;5.90;99.90;;;;;;5030923;28;20411;-53